sensor_id;sensor_type;location;lat;lon;timestamp;P1;durP1;ratioP1;P2;durP2;ratioP2
29030;SDS011;16122;50.236;11.734;2023-05-19T00:01:56;2.43;;;1.30;;
29030;SDS011;16122;50.236;11.734;2023-05-19T00:04:24;1.10;;;1.00;;
29030;SDS011;16122;50.236;11.734;2023-05-19T00:06:51;1.27;;;1.03;;
29030;SDS011;16122;50.236;11.734;2023-05-19T00:09:19;2.20;;;1.07;;
29030;SDS011;16122;50.236;11.734;2023-05-19T00:11:45;0.90;;;0.90;;
29030;SDS011;16122;50.236;11.734;2023-05-19T00:14:11;1.33;;;1.23;;
29030;SDS011;16122;50.236;11.734;2023-05-19T00:16:37;1.10;;;1.00;;
29030;SDS011;16122;50.236;11.734;2023-05-19T00:19:03;1.33;;;1.10;;
29030;SDS011;16122;50.236;11.734;2023-05-19T00:21:30;1.60;;;1.13;;
29030;SDS011;16122;50.236;11.734;2023-05-19T00:23:57;1.00;;;0.90;;
29030;SDS011;16122;50.236;11.734;2023-05-19T00:26:23;1.23;;;1.13;;
29030;SDS011;16122;50.236;11.734;2023-05-19T00:29:00;1.13;;;0.90;;
29030;SDS011;16122;50.236;11.734;2023-05-19T00:31:26;1.40;;;0.97;;
29030;SDS011;16122;50.236;11.734;2023-05-19T00:33:53;2.10;;;1.20;;
29030;SDS011;16122;50.236;11.734;2023-05-19T00:36:19;1.70;;;1.10;;
29030;SDS011;16122;50.236;11.734;2023-05-19T00:38:45;1.63;;;1.00;;
29030;SDS011;16122;50.236;11.734;2023-05-19T00:41:11;3.43;;;0.90;;
29030;SDS011;16122;50.236;11.734;2023-05-19T00:43:36;1.33;;;1.23;;
29030;SDS011;16122;50.236;11.734;2023-05-19T00:46:02;3.13;;;1.37;;
29030;SDS011;16122;50.236;11.734;2023-05-19T00:48:28;1.20;;;1.10;;
29030;SDS011;16122;50.236;11.734;2023-05-19T00:50:57;1.57;;;1.10;;
29030;SDS011;16122;50.236;11.734;2023-05-19T00:53:28;1.43;;;1.07;;
29030;SDS011;16122;50.236;11.734;2023-05-19T00:55:55;2.70;;;1.30;;
29030;SDS011;16122;50.236;11.734;2023-05-19T00:58:21;1.20;;;1.10;;
29030;SDS011;16122;50.236;11.734;2023-05-19T01:00:49;5.00;;;1.53;;
29030;SDS011;16122;50.236;11.734;2023-05-19T01:03:15;1.50;;;1.03;;
29030;SDS011;16122;50.236;11.734;2023-05-19T01:05:44;1.30;;;1.20;;
29030;SDS011;16122;50.236;11.734;2023-05-19T01:08:10;1.30;;;1.20;;
29030;SDS011;16122;50.236;11.734;2023-05-19T01:10:36;1.50;;;1.20;;
29030;SDS011;16122;50.236;11.734;2023-05-19T01:13:03;2.60;;;1.53;;
29030;SDS011;16122;50.236;11.734;2023-05-19T01:15:34;1.60;;;1.13;;
29030;SDS011;16122;50.236;11.734;2023-05-19T01:18:22;1.40;;;1.20;;
29030;SDS011;16122;50.236;11.734;2023-05-19T01:21:02;1.20;;;0.80;;
29030;SDS011;16122;50.236;11.734;2023-05-19T01:24:05;2.20;;;1.00;;
29030;SDS011;16122;50.236;11.734;2023-05-19T01:29:40;1.20;;;1.10;;
29030;SDS011;16122;50.236;11.734;2023-05-19T01:32:06;1.10;;;1.00;;
29030;SDS011;16122;50.236;11.734;2023-05-19T01:34:35;1.30;;;1.20;;
29030;SDS011;16122;50.236;11.734;2023-05-19T01:37:06;1.40;;;1.17;;
29030;SDS011;16122;50.236;11.734;2023-05-19T01:39:32;1.43;;;1.30;;
29030;SDS011;16122;50.236;11.734;2023-05-19T01:41:59;1.30;;;1.00;;
29030;SDS011;16122;50.236;11.734;2023-05-19T01:44:26;2.30;;;1.37;;
29030;SDS011;16122;50.236;11.734;2023-05-19T01:46:53;1.53;;;1.43;;
29030;SDS011;16122;50.236;11.734;2023-05-19T01:49:20;1.93;;;1.10;;
29030;SDS011;16122;50.236;11.734;2023-05-19T01:51:47;1.67;;;1.13;;
29030;SDS011;16122;50.236;11.734;2023-05-19T01:54:13;1.23;;;1.13;;
29030;SDS011;16122;50.236;11.734;2023-05-19T01:56:54;1.23;;;1.13;;
29030;SDS011;16122;50.236;11.734;2023-05-19T02:02:05;1.30;;;1.10;;
29030;SDS011;16122;50.236;11.734;2023-05-19T02:04:42;1.43;;;1.03;;
29030;SDS011;16122;50.236;11.734;2023-05-19T02:07:22;1.97;;;1.47;;
29030;SDS011;16122;50.236;11.734;2023-05-19T02:10:08;1.30;;;1.10;;
29030;SDS011;16122;50.236;11.734;2023-05-19T02:12:38;2.03;;;1.13;;
29030;SDS011;16122;50.236;11.734;2023-05-19T02:17:35;1.20;;;1.10;;
29030;SDS011;16122;50.236;11.734;2023-05-19T02:20:06;1.20;;;1.10;;
29030;SDS011;16122;50.236;11.734;2023-05-19T02:22:33;1.37;;;1.10;;
29030;SDS011;16122;50.236;11.734;2023-05-19T02:25:00;2.30;;;1.03;;
29030;SDS011;16122;50.236;11.734;2023-05-19T02:27:26;1.67;;;1.30;;
29030;SDS011;16122;50.236;11.734;2023-05-19T02:29:52;1.83;;;1.23;;
29030;SDS011;16122;50.236;11.734;2023-05-19T02:32:18;2.97;;;1.37;;
29030;SDS011;16122;50.236;11.734;2023-05-19T02:34:45;1.30;;;1.20;;
29030;SDS011;16122;50.236;11.734;2023-05-19T02:37:12;1.20;;;1.10;;
29030;SDS011;16122;50.236;11.734;2023-05-19T02:39:39;1.40;;;1.10;;
29030;SDS011;16122;50.236;11.734;2023-05-19T02:42:06;1.30;;;1.00;;
29030;SDS011;16122;50.236;11.734;2023-05-19T02:44:32;2.03;;;1.63;;
29030;SDS011;16122;50.236;11.734;2023-05-19T02:46:58;1.27;;;1.10;;
29030;SDS011;16122;50.236;11.734;2023-05-19T02:49:24;1.50;;;1.00;;
29030;SDS011;16122;50.236;11.734;2023-05-19T02:51:49;1.70;;;1.33;;
29030;SDS011;16122;50.236;11.734;2023-05-19T02:54:16;1.77;;;1.20;;
29030;SDS011;16122;50.236;11.734;2023-05-19T02:56:42;2.20;;;1.50;;
29030;SDS011;16122;50.236;11.734;2023-05-19T02:59:07;1.27;;;1.00;;
29030;SDS011;16122;50.236;11.734;2023-05-19T03:01:33;1.90;;;1.13;;
29030;SDS011;16122;50.236;11.734;2023-05-19T03:04:01;1.30;;;1.17;;
29030;SDS011;16122;50.236;11.734;2023-05-19T03:06:27;1.10;;;1.00;;
29030;SDS011;16122;50.236;11.734;2023-05-19T03:08:53;3.20;;;1.90;;
29030;SDS011;16122;50.236;11.734;2023-05-19T03:11:19;1.93;;;1.20;;
29030;SDS011;16122;50.236;11.734;2023-05-19T03:13:45;1.43;;;1.13;;
29030;SDS011;16122;50.236;11.734;2023-05-19T03:16:11;1.27;;;1.10;;
29030;SDS011;16122;50.236;11.734;2023-05-19T03:18:38;1.30;;;1.20;;
29030;SDS011;16122;50.236;11.734;2023-05-19T03:21:03;2.10;;;1.50;;
29030;SDS011;16122;50.236;11.734;2023-05-19T03:23:30;1.53;;;1.10;;
29030;SDS011;16122;50.236;11.734;2023-05-19T03:25:56;1.67;;;1.03;;
29030;SDS011;16122;50.236;11.734;2023-05-19T03:28:22;1.33;;;1.10;;
29030;SDS011;16122;50.236;11.734;2023-05-19T03:30:48;1.60;;;1.37;;
29030;SDS011;16122;50.236;11.734;2023-05-19T03:33:20;1.50;;;1.30;;
29030;SDS011;16122;50.236;11.734;2023-05-19T03:35:46;1.30;;;1.20;;
29030;SDS011;16122;50.236;11.734;2023-05-19T03:38:12;1.73;;;1.20;;
29030;SDS011;16122;50.236;11.734;2023-05-19T03:40:44;1.67;;;1.20;;
29030;SDS011;16122;50.236;11.734;2023-05-19T03:43:10;2.90;;;1.17;;
29030;SDS011;16122;50.236;11.734;2023-05-19T03:45:43;2.80;;;1.20;;
29030;SDS011;16122;50.236;11.734;2023-05-19T03:48:41;1.30;;;1.20;;
29030;SDS011;16122;50.236;11.734;2023-05-19T03:51:23;1.13;;;1.03;;
29030;SDS011;16122;50.236;11.734;2023-05-19T03:53:53;1.63;;;1.53;;
29030;SDS011;16122;50.236;11.734;2023-05-19T03:56:19;1.23;;;1.00;;
29030;SDS011;16122;50.236;11.734;2023-05-19T03:58:47;1.73;;;1.20;;
29030;SDS011;16122;50.236;11.734;2023-05-19T04:01:13;2.67;;;1.50;;
29030;SDS011;16122;50.236;11.734;2023-05-19T04:03:39;2.30;;;1.07;;
29030;SDS011;16122;50.236;11.734;2023-05-19T04:06:06;1.67;;;1.13;;
29030;SDS011;16122;50.236;11.734;2023-05-19T04:08:33;1.43;;;1.33;;
29030;SDS011;16122;50.236;11.734;2023-05-19T04:10:58;2.20;;;1.40;;
29030;SDS011;16122;50.236;11.734;2023-05-19T04:13:24;2.47;;;1.43;;
29030;SDS011;16122;50.236;11.734;2023-05-19T04:15:50;4.30;;;1.53;;
29030;SDS011;16122;50.236;11.734;2023-05-19T04:18:16;2.70;;;1.90;;
29030;SDS011;16122;50.236;11.734;2023-05-19T04:20:42;2.67;;;1.80;;
29030;SDS011;16122;50.236;11.734;2023-05-19T04:23:08;1.60;;;1.33;;
29030;SDS011;16122;50.236;11.734;2023-05-19T04:25:34;2.73;;;2.03;;
29030;SDS011;16122;50.236;11.734;2023-05-19T04:28:00;1.90;;;1.50;;
29030;SDS011;16122;50.236;11.734;2023-05-19T04:30:28;3.30;;;1.80;;
29030;SDS011;16122;50.236;11.734;2023-05-19T04:32:54;3.23;;;1.70;;
29030;SDS011;16122;50.236;11.734;2023-05-19T04:35:22;2.10;;;1.30;;
29030;SDS011;16122;50.236;11.734;2023-05-19T04:37:48;2.90;;;1.80;;
29030;SDS011;16122;50.236;11.734;2023-05-19T04:40:18;5.13;;;1.40;;
29030;SDS011;16122;50.236;11.734;2023-05-19T04:42:46;3.33;;;1.50;;
29030;SDS011;16122;50.236;11.734;2023-05-19T04:45:14;2.23;;;1.40;;
29030;SDS011;16122;50.236;11.734;2023-05-19T04:47:43;3.90;;;1.50;;
29030;SDS011;16122;50.236;11.734;2023-05-19T04:50:12;4.67;;;1.77;;
29030;SDS011;16122;50.236;11.734;2023-05-19T04:52:38;2.70;;;1.40;;
29030;SDS011;16122;50.236;11.734;2023-05-19T04:55:06;2.70;;;1.77;;
29030;SDS011;16122;50.236;11.734;2023-05-19T04:57:33;1.70;;;1.13;;
29030;SDS011;16122;50.236;11.734;2023-05-19T05:00:00;2.80;;;1.63;;
29030;SDS011;16122;50.236;11.734;2023-05-19T05:02:32;1.53;;;1.40;;
29030;SDS011;16122;50.236;11.734;2023-05-19T05:04:58;2.60;;;1.80;;
29030;SDS011;16122;50.236;11.734;2023-05-19T05:07:25;1.70;;;1.27;;
29030;SDS011;16122;50.236;11.734;2023-05-19T05:09:51;2.20;;;1.30;;
29030;SDS011;16122;50.236;11.734;2023-05-19T05:12:17;2.03;;;1.50;;
29030;SDS011;16122;50.236;11.734;2023-05-19T05:14:45;3.73;;;1.70;;
29030;SDS011;16122;50.236;11.734;2023-05-19T05:17:12;2.77;;;1.90;;
29030;SDS011;16122;50.236;11.734;2023-05-19T05:19:38;2.07;;;1.23;;
29030;SDS011;16122;50.236;11.734;2023-05-19T05:22:05;4.30;;;1.70;;
29030;SDS011;16122;50.236;11.734;2023-05-19T05:24:33;1.93;;;1.43;;
29030;SDS011;16122;50.236;11.734;2023-05-19T05:27:02;3.17;;;1.37;;
29030;SDS011;16122;50.236;11.734;2023-05-19T05:29:29;1.10;;;0.90;;
29030;SDS011;16122;50.236;11.734;2023-05-19T05:31:55;1.40;;;1.30;;
29030;SDS011;16122;50.236;11.734;2023-05-19T05:34:21;1.57;;;1.30;;
29030;SDS011;16122;50.236;11.734;2023-05-19T05:36:47;1.77;;;1.63;;
29030;SDS011;16122;50.236;11.734;2023-05-19T05:39:13;4.07;;;1.33;;
29030;SDS011;16122;50.236;11.734;2023-05-19T05:41:40;3.33;;;1.70;;
29030;SDS011;16122;50.236;11.734;2023-05-19T05:44:09;3.60;;;1.40;;
29030;SDS011;16122;50.236;11.734;2023-05-19T05:46:37;2.80;;;1.53;;
29030;SDS011;16122;50.236;11.734;2023-05-19T05:49:03;1.83;;;1.40;;
29030;SDS011;16122;50.236;11.734;2023-05-19T05:51:29;1.43;;;1.20;;
29030;SDS011;16122;50.236;11.734;2023-05-19T05:53:57;1.30;;;1.20;;
29030;SDS011;16122;50.236;11.734;2023-05-19T05:56:32;1.40;;;1.30;;
29030;SDS011;16122;50.236;11.734;2023-05-19T05:58:59;1.60;;;1.13;;
29030;SDS011;16122;50.236;11.734;2023-05-19T06:01:26;1.37;;;1.10;;
29030;SDS011;16122;50.236;11.734;2023-05-19T06:03:52;1.50;;;1.40;;
29030;SDS011;16122;50.236;11.734;2023-05-19T06:06:21;2.33;;;1.43;;
29030;SDS011;16122;50.236;11.734;2023-05-19T06:08:47;2.07;;;1.20;;
29030;SDS011;16122;50.236;11.734;2023-05-19T06:11:13;4.37;;;1.30;;
29030;SDS011;16122;50.236;11.734;2023-05-19T06:13:40;1.10;;;1.00;;
29030;SDS011;16122;50.236;11.734;2023-05-19T06:16:08;1.33;;;1.20;;
29030;SDS011;16122;50.236;11.734;2023-05-19T06:18:38;1.73;;;1.23;;
29030;SDS011;16122;50.236;11.734;2023-05-19T06:21:04;1.93;;;1.37;;
29030;SDS011;16122;50.236;11.734;2023-05-19T06:23:31;1.57;;;1.30;;
29030;SDS011;16122;50.236;11.734;2023-05-19T06:25:57;1.50;;;1.40;;
29030;SDS011;16122;50.236;11.734;2023-05-19T06:28:23;1.30;;;1.20;;
29030;SDS011;16122;50.236;11.734;2023-05-19T06:30:50;1.60;;;1.20;;
29030;SDS011;16122;50.236;11.734;2023-05-19T06:33:23;1.20;;;1.10;;
29030;SDS011;16122;50.236;11.734;2023-05-19T06:35:48;1.43;;;1.03;;
29030;SDS011;16122;50.236;11.734;2023-05-19T06:38:15;1.23;;;1.10;;
29030;SDS011;16122;50.236;11.734;2023-05-19T06:40:41;1.50;;;1.20;;
29030;SDS011;16122;50.236;11.734;2023-05-19T06:43:07;1.43;;;1.20;;
29030;SDS011;16122;50.236;11.734;2023-05-19T06:45:53;1.70;;;1.37;;
29030;SDS011;16122;50.236;11.734;2023-05-19T06:48:20;1.10;;;1.00;;
29030;SDS011;16122;50.236;11.734;2023-05-19T06:50:46;1.17;;;1.03;;
29030;SDS011;16122;50.236;11.734;2023-05-19T06:53:12;1.23;;;1.00;;
29030;SDS011;16122;50.236;11.734;2023-05-19T06:55:38;1.57;;;1.47;;
29030;SDS011;16122;50.236;11.734;2023-05-19T06:58:06;1.40;;;1.23;;
29030;SDS011;16122;50.236;11.734;2023-05-19T07:00:31;1.40;;;1.00;;
29030;SDS011;16122;50.236;11.734;2023-05-19T07:02:59;0.90;;;0.90;;
29030;SDS011;16122;50.236;11.734;2023-05-19T07:05:25;1.40;;;1.17;;
29030;SDS011;16122;50.236;11.734;2023-05-19T07:07:55;2.50;;;1.33;;
29030;SDS011;16122;50.236;11.734;2023-05-19T07:10:24;2.60;;;1.00;;
29030;SDS011;16122;50.236;11.734;2023-05-19T07:12:53;2.13;;;1.60;;
29030;SDS011;16122;50.236;11.734;2023-05-19T07:15:21;1.43;;;1.00;;
29030;SDS011;16122;50.236;11.734;2023-05-19T07:17:47;1.10;;;0.83;;
29030;SDS011;16122;50.236;11.734;2023-05-19T07:20:13;1.80;;;1.00;;
29030;SDS011;16122;50.236;11.734;2023-05-19T07:22:39;2.70;;;1.33;;
29030;SDS011;16122;50.236;11.734;2023-05-19T07:25:06;1.00;;;1.00;;
29030;SDS011;16122;50.236;11.734;2023-05-19T07:27:32;1.60;;;1.10;;
29030;SDS011;16122;50.236;11.734;2023-05-19T07:29:58;2.80;;;1.27;;
29030;SDS011;16122;50.236;11.734;2023-05-19T07:32:24;1.50;;;1.20;;
29030;SDS011;16122;50.236;11.734;2023-05-19T07:34:51;4.30;;;1.70;;
29030;SDS011;16122;50.236;11.734;2023-05-19T07:37:17;1.40;;;1.30;;
29030;SDS011;16122;50.236;11.734;2023-05-19T07:39:43;1.17;;;1.03;;
29030;SDS011;16122;50.236;11.734;2023-05-19T07:42:08;1.43;;;1.07;;
29030;SDS011;16122;50.236;11.734;2023-05-19T07:44:34;1.03;;;0.97;;
29030;SDS011;16122;50.236;11.734;2023-05-19T07:47:00;1.60;;;1.00;;
29030;SDS011;16122;50.236;11.734;2023-05-19T07:49:26;4.33;;;1.47;;
29030;SDS011;16122;50.236;11.734;2023-05-19T07:51:52;1.97;;;1.60;;
29030;SDS011;16122;50.236;11.734;2023-05-19T07:54:18;1.53;;;1.20;;
29030;SDS011;16122;50.236;11.734;2023-05-19T07:56:45;1.00;;;0.80;;
29030;SDS011;16122;50.236;11.734;2023-05-19T07:59:12;1.47;;;1.37;;
29030;SDS011;16122;50.236;11.734;2023-05-19T08:01:39;2.03;;;1.27;;
29030;SDS011;16122;50.236;11.734;2023-05-19T08:04:04;1.57;;;1.27;;
29030;SDS011;16122;50.236;11.734;2023-05-19T08:06:30;1.23;;;1.13;;
29030;SDS011;16122;50.236;11.734;2023-05-19T08:08:56;2.17;;;1.23;;
29030;SDS011;16122;50.236;11.734;2023-05-19T08:11:22;1.17;;;1.07;;
29030;SDS011;16122;50.236;11.734;2023-05-19T08:13:48;1.70;;;1.17;;
29030;SDS011;16122;50.236;11.734;2023-05-19T08:16:14;1.67;;;1.13;;
29030;SDS011;16122;50.236;11.734;2023-05-19T08:18:40;1.40;;;1.30;;
29030;SDS011;16122;50.236;11.734;2023-05-19T08:21:06;1.50;;;0.90;;
29030;SDS011;16122;50.236;11.734;2023-05-19T08:23:32;1.67;;;1.40;;
29030;SDS011;16122;50.236;11.734;2023-05-19T08:25:58;1.53;;;1.00;;
29030;SDS011;16122;50.236;11.734;2023-05-19T08:28:24;1.10;;;1.00;;
29030;SDS011;16122;50.236;11.734;2023-05-19T08:30:50;1.47;;;1.10;;
29030;SDS011;16122;50.236;11.734;2023-05-19T08:33:17;2.23;;;1.10;;
29030;SDS011;16122;50.236;11.734;2023-05-19T08:35:45;1.00;;;0.90;;
29030;SDS011;16122;50.236;11.734;2023-05-19T08:38:10;1.20;;;1.10;;
29030;SDS011;16122;50.236;11.734;2023-05-19T08:40:36;2.13;;;1.37;;
29030;SDS011;16122;50.236;11.734;2023-05-19T08:43:06;1.33;;;1.23;;
29030;SDS011;16122;50.236;11.734;2023-05-19T08:45:32;1.10;;;1.00;;
29030;SDS011;16122;50.236;11.734;2023-05-19T08:47:59;1.40;;;1.30;;
29030;SDS011;16122;50.236;11.734;2023-05-19T08:50:34;1.40;;;1.20;;
29030;SDS011;16122;50.236;11.734;2023-05-19T08:53:41;1.20;;;0.93;;
29030;SDS011;16122;50.236;11.734;2023-05-19T08:56:09;2.77;;;1.33;;
29030;SDS011;16122;50.236;11.734;2023-05-19T08:58:37;2.47;;;1.03;;
29030;SDS011;16122;50.236;11.734;2023-05-19T09:01:06;1.20;;;1.10;;
29030;SDS011;16122;50.236;11.734;2023-05-19T09:03:34;1.20;;;1.10;;
29030;SDS011;16122;50.236;11.734;2023-05-19T09:06:05;1.00;;;0.90;;
29030;SDS011;16122;50.236;11.734;2023-05-19T09:08:33;1.60;;;1.03;;
29030;SDS011;16122;50.236;11.734;2023-05-19T09:10:59;1.73;;;1.10;;
29030;SDS011;16122;50.236;11.734;2023-05-19T09:13:25;1.40;;;1.00;;
29030;SDS011;16122;50.236;11.734;2023-05-19T09:15:57;2.20;;;1.50;;
29030;SDS011;16122;50.236;11.734;2023-05-19T09:18:24;1.20;;;1.10;;
29030;SDS011;16122;50.236;11.734;2023-05-19T09:20:54;1.47;;;1.23;;
29030;SDS011;16122;50.236;11.734;2023-05-19T09:23:24;2.80;;;1.93;;
29030;SDS011;16122;50.236;11.734;2023-05-19T09:25:53;1.30;;;1.20;;
29030;SDS011;16122;50.236;11.734;2023-05-19T09:28:27;4.30;;;1.20;;
29030;SDS011;16122;50.236;11.734;2023-05-19T09:33:28;4.00;;;2.07;;
29030;SDS011;16122;50.236;11.734;2023-05-19T09:35:56;2.23;;;1.60;;
29030;SDS011;16122;50.236;11.734;2023-05-19T09:38:28;3.07;;;1.40;;
29030;SDS011;16122;50.236;11.734;2023-05-19T09:40:57;1.77;;;1.50;;
29030;SDS011;16122;50.236;11.734;2023-05-19T09:43:27;2.90;;;1.73;;
29030;SDS011;16122;50.236;11.734;2023-05-19T09:46:03;3.53;;;1.67;;
29030;SDS011;16122;50.236;11.734;2023-05-19T09:48:30;1.70;;;1.20;;
29030;SDS011;16122;50.236;11.734;2023-05-19T09:50:56;1.50;;;1.40;;
29030;SDS011;16122;50.236;11.734;2023-05-19T09:53:25;1.83;;;1.20;;
29030;SDS011;16122;50.236;11.734;2023-05-19T09:55:54;2.30;;;1.27;;
29030;SDS011;16122;50.236;11.734;2023-05-19T09:58:24;3.87;;;1.90;;
29030;SDS011;16122;50.236;11.734;2023-05-19T10:00:51;1.50;;;1.33;;
29030;SDS011;16122;50.236;11.734;2023-05-19T10:03:19;2.50;;;1.67;;
29030;SDS011;16122;50.236;11.734;2023-05-19T10:05:49;2.90;;;1.40;;
29030;SDS011;16122;50.236;11.734;2023-05-19T10:08:16;2.20;;;1.47;;
29030;SDS011;16122;50.236;11.734;2023-05-19T10:10:44;1.87;;;1.40;;
29030;SDS011;16122;50.236;11.734;2023-05-19T10:13:11;3.20;;;2.23;;
29030;SDS011;16122;50.236;11.734;2023-05-19T10:15:39;3.00;;;1.93;;
29030;SDS011;16122;50.236;11.734;2023-05-19T10:18:07;3.50;;;2.10;;
29030;SDS011;16122;50.236;11.734;2023-05-19T10:20:34;3.00;;;2.20;;
29030;SDS011;16122;50.236;11.734;2023-05-19T10:23:00;4.83;;;2.20;;
29030;SDS011;16122;50.236;11.734;2023-05-19T10:25:27;4.27;;;2.30;;
29030;SDS011;16122;50.236;11.734;2023-05-19T10:28:10;6.23;;;2.13;;
29030;SDS011;16122;50.236;11.734;2023-05-19T10:30:40;3.43;;;2.43;;
29030;SDS011;16122;50.236;11.734;2023-05-19T10:33:13;3.43;;;2.83;;
29030;SDS011;16122;50.236;11.734;2023-05-19T10:38:59;3.67;;;2.50;;
29030;SDS011;16122;50.236;11.734;2023-05-19T10:47:09;4.63;;;2.50;;
29030;SDS011;16122;50.236;11.734;2023-05-19T10:49:36;4.70;;;3.17;;
29030;SDS011;16122;50.236;11.734;2023-05-19T10:52:02;8.57;;;2.60;;
29030;SDS011;16122;50.236;11.734;2023-05-19T10:54:41;4.17;;;2.03;;
29030;SDS011;16122;50.236;11.734;2023-05-19T10:57:16;2.30;;;2.10;;
29030;SDS011;16122;50.236;11.734;2023-05-19T10:59:42;4.00;;;1.87;;
29030;SDS011;16122;50.236;11.734;2023-05-19T11:05:07;3.83;;;2.00;;
29030;SDS011;16122;50.236;11.734;2023-05-19T11:07:34;5.67;;;2.90;;
29030;SDS011;16122;50.236;11.734;2023-05-19T11:10:02;5.97;;;2.73;;
29030;SDS011;16122;50.236;11.734;2023-05-19T11:12:38;4.60;;;2.20;;
29030;SDS011;16122;50.236;11.734;2023-05-19T11:15:10;2.60;;;1.90;;
29030;SDS011;16122;50.236;11.734;2023-05-19T11:17:40;5.13;;;2.20;;
29030;SDS011;16122;50.236;11.734;2023-05-19T11:20:08;2.70;;;1.83;;
29030;SDS011;16122;50.236;11.734;2023-05-19T11:23:04;2.90;;;2.00;;
29030;SDS011;16122;50.236;11.734;2023-05-19T11:25:42;5.30;;;2.03;;
29030;SDS011;16122;50.236;11.734;2023-05-19T11:28:16;5.73;;;1.80;;
29030;SDS011;16122;50.236;11.734;2023-05-19T11:30:43;4.13;;;1.80;;
29030;SDS011;16122;50.236;11.734;2023-05-19T11:33:10;5.27;;;1.93;;
29030;SDS011;16122;50.236;11.734;2023-05-19T11:35:38;7.50;;;2.27;;
29030;SDS011;16122;50.236;11.734;2023-05-19T11:38:04;2.43;;;2.23;;
29030;SDS011;16122;50.236;11.734;2023-05-19T11:40:31;4.03;;;1.80;;
29030;SDS011;16122;50.236;11.734;2023-05-19T11:42:57;3.20;;;2.07;;
29030;SDS011;16122;50.236;11.734;2023-05-19T11:45:26;2.20;;;1.63;;
29030;SDS011;16122;50.236;11.734;2023-05-19T11:47:56;3.80;;;1.90;;
29030;SDS011;16122;50.236;11.734;2023-05-19T11:50:23;3.20;;;1.83;;
29030;SDS011;16122;50.236;11.734;2023-05-19T11:52:50;2.20;;;2.00;;
29030;SDS011;16122;50.236;11.734;2023-05-19T11:55:17;2.23;;;1.83;;
29030;SDS011;16122;50.236;11.734;2023-05-19T11:57:55;2.50;;;2.10;;
29030;SDS011;16122;50.236;11.734;2023-05-19T12:00:25;2.40;;;1.40;;
29030;SDS011;16122;50.236;11.734;2023-05-19T12:02:51;3.00;;;2.27;;
29030;SDS011;16122;50.236;11.734;2023-05-19T12:05:18;5.93;;;2.50;;
29030;SDS011;16122;50.236;11.734;2023-05-19T12:07:48;3.33;;;1.80;;
29030;SDS011;16122;50.236;11.734;2023-05-19T12:10:16;5.73;;;2.07;;
29030;SDS011;16122;50.236;11.734;2023-05-19T12:12:50;6.30;;;2.20;;
29030;SDS011;16122;50.236;11.734;2023-05-19T12:15:22;5.47;;;2.03;;
29030;SDS011;16122;50.236;11.734;2023-05-19T12:18:10;4.37;;;2.00;;
29030;SDS011;16122;50.236;11.734;2023-05-19T12:20:34;6.93;;;2.20;;
29030;SDS011;16122;50.236;11.734;2023-05-19T12:23:01;4.77;;;3.20;;
29030;SDS011;16122;50.236;11.734;2023-05-19T12:25:27;4.67;;;2.10;;
29030;SDS011;16122;50.236;11.734;2023-05-19T12:27:57;3.73;;;2.23;;
29030;SDS011;16122;50.236;11.734;2023-05-19T12:30:27;5.03;;;3.47;;
29030;SDS011;16122;50.236;11.734;2023-05-19T12:32:55;4.10;;;2.50;;
29030;SDS011;16122;50.236;11.734;2023-05-19T12:35:24;3.57;;;2.20;;
29030;SDS011;16122;50.236;11.734;2023-05-19T12:37:51;2.67;;;2.03;;
29030;SDS011;16122;50.236;11.734;2023-05-19T12:40:18;4.13;;;2.97;;
29030;SDS011;16122;50.236;11.734;2023-05-19T12:42:44;7.13;;;2.50;;
29030;SDS011;16122;50.236;11.734;2023-05-19T12:45:10;3.13;;;2.40;;
29030;SDS011;16122;50.236;11.734;2023-05-19T12:47:36;4.13;;;2.70;;
29030;SDS011;16122;50.236;11.734;2023-05-19T12:52:33;6.43;;;2.70;;
29030;SDS011;16122;50.236;11.734;2023-05-19T12:55:13;5.20;;;2.50;;
29030;SDS011;16122;50.236;11.734;2023-05-19T12:57:41;6.23;;;2.67;;
29030;SDS011;16122;50.236;11.734;2023-05-19T13:00:22;4.13;;;2.67;;
29030;SDS011;16122;50.236;11.734;2023-05-19T13:02:55;4.50;;;2.33;;
29030;SDS011;16122;50.236;11.734;2023-05-19T13:05:21;2.60;;;2.20;;
29030;SDS011;16122;50.236;11.734;2023-05-19T13:07:57;2.90;;;2.50;;
29030;SDS011;16122;50.236;11.734;2023-05-19T13:10:29;4.10;;;2.40;;
29030;SDS011;16122;50.236;11.734;2023-05-19T13:12:56;5.80;;;2.60;;
29030;SDS011;16122;50.236;11.734;2023-05-19T13:15:23;4.33;;;2.40;;
29030;SDS011;16122;50.236;11.734;2023-05-19T13:17:53;4.57;;;2.40;;
29030;SDS011;16122;50.236;11.734;2023-05-19T13:20:19;4.03;;;2.10;;
29030;SDS011;16122;50.236;11.734;2023-05-19T13:22:49;3.83;;;2.60;;
29030;SDS011;16122;50.236;11.734;2023-05-19T13:25:15;7.53;;;2.60;;
29030;SDS011;16122;50.236;11.734;2023-05-19T13:27:41;5.30;;;2.30;;
29030;SDS011;16122;50.236;11.734;2023-05-19T13:30:08;4.57;;;2.10;;
29030;SDS011;16122;50.236;11.734;2023-05-19T13:32:34;3.30;;;2.27;;
29030;SDS011;16122;50.236;11.734;2023-05-19T13:35:00;2.80;;;2.00;;
29030;SDS011;16122;50.236;11.734;2023-05-19T13:37:26;3.50;;;2.50;;
29030;SDS011;16122;50.236;11.734;2023-05-19T13:39:52;2.47;;;2.03;;
29030;SDS011;16122;50.236;11.734;2023-05-19T13:42:18;2.40;;;1.83;;
29030;SDS011;16122;50.236;11.734;2023-05-19T13:44:44;7.10;;;2.20;;
29030;SDS011;16122;50.236;11.734;2023-05-19T13:47:11;3.73;;;1.93;;
29030;SDS011;16122;50.236;11.734;2023-05-19T13:49:37;7.67;;;2.37;;
29030;SDS011;16122;50.236;11.734;2023-05-19T13:52:04;2.87;;;2.00;;
29030;SDS011;16122;50.236;11.734;2023-05-19T13:54:31;3.77;;;2.33;;
29030;SDS011;16122;50.236;11.734;2023-05-19T13:56:58;5.10;;;2.43;;
29030;SDS011;16122;50.236;11.734;2023-05-19T13:59:24;6.13;;;3.30;;
29030;SDS011;16122;50.236;11.734;2023-05-19T14:01:50;4.03;;;2.23;;
29030;SDS011;16122;50.236;11.734;2023-05-19T14:04:16;3.27;;;2.37;;
29030;SDS011;16122;50.236;11.734;2023-05-19T14:06:43;3.07;;;1.93;;
29030;SDS011;16122;50.236;11.734;2023-05-19T14:09:09;5.47;;;1.80;;
29030;SDS011;16122;50.236;11.734;2023-05-19T14:11:35;2.80;;;1.90;;
29030;SDS011;16122;50.236;11.734;2023-05-19T14:14:01;1.83;;;1.70;;
29030;SDS011;16122;50.236;11.734;2023-05-19T14:16:29;2.60;;;1.70;;
29030;SDS011;16122;50.236;11.734;2023-05-19T14:18:56;5.03;;;2.13;;
29030;SDS011;16122;50.236;11.734;2023-05-19T14:21:21;4.33;;;2.17;;
29030;SDS011;16122;50.236;11.734;2023-05-19T14:23:47;2.80;;;1.80;;
29030;SDS011;16122;50.236;11.734;2023-05-19T14:26:13;3.20;;;1.90;;
29030;SDS011;16122;50.236;11.734;2023-05-19T14:28:39;3.60;;;1.80;;
29030;SDS011;16122;50.236;11.734;2023-05-19T14:31:09;2.00;;;1.90;;
29030;SDS011;16122;50.236;11.734;2023-05-19T14:33:36;3.97;;;2.10;;
29030;SDS011;16122;50.236;11.734;2023-05-19T14:36:02;3.30;;;2.70;;
29030;SDS011;16122;50.236;11.734;2023-05-19T14:38:29;2.00;;;1.80;;
29030;SDS011;16122;50.236;11.734;2023-05-19T14:40:55;2.47;;;1.70;;
29030;SDS011;16122;50.236;11.734;2023-05-19T14:43:21;4.10;;;2.50;;
29030;SDS011;16122;50.236;11.734;2023-05-19T14:45:47;4.03;;;1.77;;
29030;SDS011;16122;50.236;11.734;2023-05-19T14:48:13;2.30;;;1.87;;
29030;SDS011;16122;50.236;11.734;2023-05-19T14:50:39;2.67;;;2.10;;
29030;SDS011;16122;50.236;11.734;2023-05-19T14:53:04;3.07;;;1.53;;
29030;SDS011;16122;50.236;11.734;2023-05-19T14:55:30;1.93;;;1.73;;
29030;SDS011;16122;50.236;11.734;2023-05-19T14:57:56;5.17;;;1.80;;
29030;SDS011;16122;50.236;11.734;2023-05-19T15:00:22;1.70;;;1.60;;
29030;SDS011;16122;50.236;11.734;2023-05-19T15:02:50;2.30;;;1.60;;
29030;SDS011;16122;50.236;11.734;2023-05-19T15:05:17;2.50;;;1.30;;